sensor_id;sensor_type;location;lat;lon;timestamp;P1;durP1;ratioP1;P2;durP2;ratioP2
71042;SDS011;58696;52.134;5.500;2024-03-23T00:54:52;19.40;;;7.28;;
71042;SDS011;58696;52.134;5.500;2024-03-23T00:57:18;18.35;;;7.53;;
71042;SDS011;58696;52.134;5.500;2024-03-23T00:59:43;17.27;;;6.75;;
71042;SDS011;58696;52.134;5.500;2024-03-23T01:02:09;16.13;;;6.18;;
71042;SDS011;58696;52.134;5.500;2024-03-23T01:04:35;25.45;;;7.40;;
71042;SDS011;58696;52.134;5.500;2024-03-23T01:07:01;17.77;;;6.80;;
71042;SDS011;58696;52.134;5.500;2024-03-23T01:09:27;17.88;;;6.63;;
71042;SDS011;58696;52.134;5.500;2024-03-23T01:11:56;19.52;;;6.53;;
71042;SDS011;58696;52.134;5.500;2024-03-23T01:14:24;19.65;;;6.68;;
71042;SDS011;58696;52.134;5.500;2024-03-23T01:16:52;18.38;;;6.50;;
71042;SDS011;58696;52.134;5.500;2024-03-23T01:19:18;17.27;;;6.38;;
71042;SDS011;58696;52.134;5.500;2024-03-23T01:21:44;23.30;;;6.38;;
71042;SDS011;58696;52.134;5.500;2024-03-23T01:24:15;13.75;;;5.85;;
71042;SDS011;58696;52.134;5.500;2024-03-23T01:26:41;19.65;;;6.13;;
71042;SDS011;58696;52.134;5.500;2024-03-23T01:29:06;19.40;;;6.78;;
71042;SDS011;58696;52.134;5.500;2024-03-23T01:31:34;17.25;;;6.05;;
71042;SDS011;58696;52.134;5.500;2024-03-23T01:34:00;19.00;;;5.43;;
71042;SDS011;58696;52.134;5.500;2024-03-23T01:36:26;18.48;;;6.97;;
71042;SDS011;58696;52.134;5.500;2024-03-23T01:38:52;22.90;;;6.55;;
71042;SDS011;58696;52.134;5.500;2024-03-23T01:41:18;18.30;;;6.45;;
71042;SDS011;58696;52.134;5.500;2024-03-23T01:43:43;17.73;;;7.20;;
71042;SDS011;58696;52.134;5.500;2024-03-23T01:48:42;19.65;;;6.07;;
71042;SDS011;58696;52.134;5.500;2024-03-23T01:51:10;19.77;;;5.95;;
71042;SDS011;58696;52.134;5.500;2024-03-23T01:53:36;15.57;;;5.80;;
71042;SDS011;58696;52.134;5.500;2024-03-23T01:56:02;19.05;;;6.25;;
71042;SDS011;58696;52.134;5.500;2024-03-23T01:58:31;20.65;;;5.60;;
71042;SDS011;58696;52.134;5.500;2024-03-23T02:00:57;16.25;;;6.05;;
71042;SDS011;58696;52.134;5.500;2024-03-23T02:03:24;18.15;;;6.25;;
71042;SDS011;58696;52.134;5.500;2024-03-23T02:05:51;22.65;;;6.93;;
71042;SDS011;58696;52.134;5.500;2024-03-23T02:08:21;18.45;;;5.85;;
71042;SDS011;58696;52.134;5.500;2024-03-23T02:10:50;18.23;;;6.30;;
71042;SDS011;58696;52.134;5.500;2024-03-23T02:13:16;15.30;;;6.43;;
71042;SDS011;58696;52.134;5.500;2024-03-23T02:15:45;21.25;;;6.65;;
71042;SDS011;58696;52.134;5.500;2024-03-23T02:18:11;20.05;;;6.60;;
71042;SDS011;58696;52.134;5.500;2024-03-23T02:23:14;16.80;;;6.45;;
71042;SDS011;58696;52.134;5.500;2024-03-23T02:25:40;21.60;;;6.00;;
71042;SDS011;58696;52.134;5.500;2024-03-23T02:28:07;13.98;;;5.90;;
71042;SDS011;58696;52.134;5.500;2024-03-23T02:30:33;17.98;;;6.10;;
71042;SDS011;58696;52.134;5.500;2024-03-23T02:32:59;16.95;;;5.50;;
71042;SDS011;58696;52.134;5.500;2024-03-23T02:35:27;15.43;;;6.35;;
71042;SDS011;58696;52.134;5.500;2024-03-23T02:37:53;24.58;;;6.30;;
71042;SDS011;58696;52.134;5.500;2024-03-23T02:40:23;17.05;;;5.80;;
71042;SDS011;58696;52.134;5.500;2024-03-23T02:42:49;25.73;;;6.53;;
71042;SDS011;58696;52.134;5.500;2024-03-23T02:45:15;15.88;;;6.32;;
71042;SDS011;58696;52.134;5.500;2024-03-23T02:47:41;15.80;;;6.30;;
71042;SDS011;58696;52.134;5.500;2024-03-23T02:50:07;23.75;;;7.45;;
71042;SDS011;58696;52.134;5.500;2024-03-23T02:52:34;17.60;;;5.60;;
71042;SDS011;58696;52.134;5.500;2024-03-23T02:55:00;13.23;;;5.65;;
71042;SDS011;58696;52.134;5.500;2024-03-23T02:57:27;17.25;;;6.63;;
71042;SDS011;58696;52.134;5.500;2024-03-23T03:02:21;15.43;;;5.25;;
71042;SDS011;58696;52.134;5.500;2024-03-23T03:04:47;23.02;;;6.32;;
71042;SDS011;58696;52.134;5.500;2024-03-23T03:07:13;15.25;;;5.10;;
71042;SDS011;58696;52.134;5.500;2024-03-23T03:09:39;15.68;;;4.85;;
71042;SDS011;58696;52.134;5.500;2024-03-23T03:12:06;15.88;;;5.13;;
71042;SDS011;58696;52.134;5.500;2024-03-23T03:14:34;15.30;;;4.95;;
71042;SDS011;58696;52.134;5.500;2024-03-23T03:17:02;20.60;;;5.28;;
71042;SDS011;58696;52.134;5.500;2024-03-23T03:19:33;15.88;;;5.25;;
71042;SDS011;58696;52.134;5.500;2024-03-23T03:21:59;12.75;;;5.13;;
71042;SDS011;58696;52.134;5.500;2024-03-23T03:24:25;10.32;;;4.65;;
71042;SDS011;58696;52.134;5.500;2024-03-23T03:26:54;12.23;;;5.40;;
71042;SDS011;58696;52.134;5.500;2024-03-23T03:29:24;14.02;;;5.25;;
71042;SDS011;58696;52.134;5.500;2024-03-23T03:31:50;16.25;;;4.60;;
71042;SDS011;58696;52.134;5.500;2024-03-23T03:34:19;22.02;;;5.88;;
71042;SDS011;58696;52.134;5.500;2024-03-23T03:36:44;15.55;;;5.15;;
71042;SDS011;58696;52.134;5.500;2024-03-23T03:39:13;18.50;;;4.78;;
71042;SDS011;58696;52.134;5.500;2024-03-23T03:44:04;17.73;;;4.95;;
71042;SDS011;58696;52.134;5.500;2024-03-23T03:46:30;14.88;;;4.80;;
71042;SDS011;58696;52.134;5.500;2024-03-23T03:48:58;11.85;;;4.32;;
71042;SDS011;58696;52.134;5.500;2024-03-23T03:51:24;13.82;;;4.60;;
71042;SDS011;58696;52.134;5.500;2024-03-23T03:53:50;11.95;;;5.38;;
71042;SDS011;58696;52.134;5.500;2024-03-23T03:56:16;15.30;;;4.97;;
71042;SDS011;58696;52.134;5.500;2024-03-23T03:58:41;13.00;;;4.88;;
71042;SDS011;58696;52.134;5.500;2024-03-23T04:01:09;18.05;;;4.63;;
71042;SDS011;58696;52.134;5.500;2024-03-23T04:03:40;14.82;;;4.68;;
71042;SDS011;58696;52.134;5.500;2024-03-23T04:06:09;15.90;;;4.82;;
71042;SDS011;58696;52.134;5.500;2024-03-23T04:08:38;13.43;;;4.30;;
71042;SDS011;58696;52.134;5.500;2024-03-23T04:13:32;13.60;;;3.85;;
71042;SDS011;58696;52.134;5.500;2024-03-23T04:16:02;12.80;;;5.00;;
71042;SDS011;58696;52.134;5.500;2024-03-23T04:18:30;15.60;;;3.95;;
71042;SDS011;58696;52.134;5.500;2024-03-23T04:23:24;7.82;;;3.65;;
71042;SDS011;58696;52.134;5.500;2024-03-23T04:28:17;10.00;;;4.78;;
71042;SDS011;58696;52.134;5.500;2024-03-23T04:30:45;15.68;;;4.43;;
71042;SDS011;58696;52.134;5.500;2024-03-23T04:33:11;11.40;;;4.18;;
71042;SDS011;58696;52.134;5.500;2024-03-23T04:35:39;11.13;;;4.38;;
71042;SDS011;58696;52.134;5.500;2024-03-23T04:38:04;15.90;;;4.25;;
71042;SDS011;58696;52.134;5.500;2024-03-23T04:40:30;14.88;;;4.88;;
71042;SDS011;58696;52.134;5.500;2024-03-23T04:42:59;12.02;;;4.05;;
71042;SDS011;58696;52.134;5.500;2024-03-23T04:45:26;11.05;;;3.80;;
71042;SDS011;58696;52.134;5.500;2024-03-23T04:47:51;11.43;;;4.38;;
71042;SDS011;58696;52.134;5.500;2024-03-23T04:50:17;12.10;;;3.42;;
71042;SDS011;58696;52.134;5.500;2024-03-23T04:52:44;12.20;;;3.80;;
71042;SDS011;58696;52.134;5.500;2024-03-23T04:55:09;10.20;;;3.88;;
71042;SDS011;58696;52.134;5.500;2024-03-23T04:57:37;16.10;;;4.05;;
71042;SDS011;58696;52.134;5.500;2024-03-23T05:00:05;11.32;;;3.35;;
71042;SDS011;58696;52.134;5.500;2024-03-23T05:02:42;8.98;;;3.08;;
71042;SDS011;58696;52.134;5.500;2024-03-23T05:05:11;11.25;;;3.42;;
71042;SDS011;58696;52.134;5.500;2024-03-23T05:07:42;11.27;;;3.33;;
71042;SDS011;58696;52.134;5.500;2024-03-23T05:12:39;13.50;;;2.97;;
71042;SDS011;58696;52.134;5.500;2024-03-23T05:15:05;9.20;;;2.80;;
71042;SDS011;58696;52.134;5.500;2024-03-23T05:17:34;10.77;;;2.45;;
71042;SDS011;58696;52.134;5.500;2024-03-23T05:20:00;8.00;;;2.55;;
71042;SDS011;58696;52.134;5.500;2024-03-23T05:22:31;9.93;;;2.90;;
71042;SDS011;58696;52.134;5.500;2024-03-23T05:24:59;5.25;;;2.33;;
71042;SDS011;58696;52.134;5.500;2024-03-23T05:27:25;14.35;;;2.47;;
71042;SDS011;58696;52.134;5.500;2024-03-23T05:29:53;7.90;;;2.33;;
71042;SDS011;58696;52.134;5.500;2024-03-23T05:32:19;6.55;;;2.35;;
71042;SDS011;58696;52.134;5.500;2024-03-23T05:34:45;8.80;;;2.10;;
71042;SDS011;58696;52.134;5.500;2024-03-23T05:37:10;11.30;;;2.58;;
71042;SDS011;58696;52.134;5.500;2024-03-23T05:39:36;8.05;;;2.33;;
71042;SDS011;58696;52.134;5.500;2024-03-23T05:42:02;14.80;;;2.47;;
71042;SDS011;58696;52.134;5.500;2024-03-23T05:44:28;9.60;;;2.65;;
71042;SDS011;58696;52.134;5.500;2024-03-23T05:46:54;9.63;;;2.10;;
71042;SDS011;58696;52.134;5.500;2024-03-23T05:49:20;5.88;;;2.25;;
71042;SDS011;58696;52.134;5.500;2024-03-23T05:51:48;11.45;;;2.70;;
71042;SDS011;58696;52.134;5.500;2024-03-23T05:54:14;10.27;;;2.17;;
71042;SDS011;58696;52.134;5.500;2024-03-23T05:56:42;15.02;;;2.40;;
71042;SDS011;58696;52.134;5.500;2024-03-23T05:59:08;8.95;;;2.25;;
71042;SDS011;58696;52.134;5.500;2024-03-23T06:01:34;7.55;;;1.80;;
71042;SDS011;58696;52.134;5.500;2024-03-23T06:04:04;14.75;;;2.10;;
71042;SDS011;58696;52.134;5.500;2024-03-23T06:06:29;8.30;;;1.95;;
71042;SDS011;58696;52.134;5.500;2024-03-23T06:08:58;10.98;;;1.98;;
71042;SDS011;58696;52.134;5.500;2024-03-23T06:11:26;17.20;;;2.83;;
71042;SDS011;58696;52.134;5.500;2024-03-23T06:13:55;6.93;;;1.70;;
71042;SDS011;58696;52.134;5.500;2024-03-23T06:16:21;15.27;;;2.40;;
71042;SDS011;58696;52.134;5.500;2024-03-23T06:21:18;5.07;;;1.60;;
71042;SDS011;58696;52.134;5.500;2024-03-23T06:23:44;6.80;;;1.75;;
71042;SDS011;58696;52.134;5.500;2024-03-23T06:26:19;7.20;;;1.50;;
71042;SDS011;58696;52.134;5.500;2024-03-23T06:28:46;9.38;;;1.58;;
71042;SDS011;58696;52.134;5.500;2024-03-23T06:31:14;10.35;;;1.85;;
71042;SDS011;58696;52.134;5.500;2024-03-23T06:33:40;12.80;;;2.13;;
71042;SDS011;58696;52.134;5.500;2024-03-23T06:36:10;6.00;;;1.40;;
71042;SDS011;58696;52.134;5.500;2024-03-23T06:38:37;7.25;;;1.70;;
71042;SDS011;58696;52.134;5.500;2024-03-23T06:41:03;10.48;;;2.33;;
71042;SDS011;58696;52.134;5.500;2024-03-23T06:43:34;7.80;;;1.83;;
71042;SDS011;58696;52.134;5.500;2024-03-23T06:45:59;7.40;;;2.00;;
71042;SDS011;58696;52.134;5.500;2024-03-23T06:48:28;7.60;;;1.73;;
71042;SDS011;58696;52.134;5.500;2024-03-23T06:50:55;11.52;;;2.17;;
71042;SDS011;58696;52.134;5.500;2024-03-23T06:53:24;5.45;;;1.60;;
71042;SDS011;58696;52.134;5.500;2024-03-23T06:55:52;5.90;;;2.25;;
71042;SDS011;58696;52.134;5.500;2024-03-23T06:58:23;7.43;;;1.95;;
71042;SDS011;58696;52.134;5.500;2024-03-23T07:00:50;5.32;;;1.92;;
71042;SDS011;58696;52.134;5.500;2024-03-23T07:03:16;9.13;;;2.75;;
71042;SDS011;58696;52.134;5.500;2024-03-23T07:05:49;8.45;;;2.00;;
71042;SDS011;58696;52.134;5.500;2024-03-23T07:08:20;5.90;;;2.20;;
71042;SDS011;58696;52.134;5.500;2024-03-23T07:10:47;7.60;;;1.85;;
71042;SDS011;58696;52.134;5.500;2024-03-23T07:13:16;8.43;;;1.95;;
71042;SDS011;58696;52.134;5.500;2024-03-23T07:15:42;11.48;;;2.08;;
71042;SDS011;58696;52.134;5.500;2024-03-23T07:18:08;5.60;;;1.73;;
71042;SDS011;58696;52.134;5.500;2024-03-23T07:20:34;9.98;;;1.73;;
71042;SDS011;58696;52.134;5.500;2024-03-23T07:23:02;8.38;;;2.40;;
71042;SDS011;58696;52.134;5.500;2024-03-23T07:25:28;10.90;;;2.13;;
71042;SDS011;58696;52.134;5.500;2024-03-23T07:27:54;5.40;;;2.00;;
71042;SDS011;58696;52.134;5.500;2024-03-23T07:30:22;10.50;;;2.15;;
71042;SDS011;58696;52.134;5.500;2024-03-23T07:32:48;11.63;;;2.78;;
71042;SDS011;58696;52.134;5.500;2024-03-23T07:35:21;8.13;;;2.25;;
71042;SDS011;58696;52.134;5.500;2024-03-23T07:40:13;8.82;;;2.13;;
71042;SDS011;58696;52.134;5.500;2024-03-23T07:42:41;10.00;;;2.03;;
71042;SDS011;58696;52.134;5.500;2024-03-23T07:45:06;9.57;;;2.03;;
71042;SDS011;58696;52.134;5.500;2024-03-23T07:47:35;6.57;;;2.20;;
71042;SDS011;58696;52.134;5.500;2024-03-23T07:50:01;6.82;;;1.88;;
71042;SDS011;58696;52.134;5.500;2024-03-23T07:52:32;16.55;;;2.45;;
71042;SDS011;58696;52.134;5.500;2024-03-23T07:55:00;9.35;;;2.05;;
71042;SDS011;58696;52.134;5.500;2024-03-23T08:02:19;14.93;;;1.92;;
71042;SDS011;58696;52.134;5.500;2024-03-23T08:04:47;4.72;;;1.45;;
71042;SDS011;58696;52.134;5.500;2024-03-23T08:07:13;7.50;;;2.10;;
71042;SDS011;58696;52.134;5.500;2024-03-23T08:09:39;8.93;;;2.08;;
71042;SDS011;58696;52.134;5.500;2024-03-23T08:12:07;7.07;;;2.05;;
71042;SDS011;58696;52.134;5.500;2024-03-23T08:14:33;6.03;;;2.08;;
71042;SDS011;58696;52.134;5.500;2024-03-23T08:16:58;9.23;;;1.92;;
71042;SDS011;58696;52.134;5.500;2024-03-23T08:21:52;13.00;;;2.75;;
71042;SDS011;58696;52.134;5.500;2024-03-23T08:24:20;9.90;;;1.98;;
71042;SDS011;58696;52.134;5.500;2024-03-23T08:26:48;5.93;;;1.77;;
71042;SDS011;58696;52.134;5.500;2024-03-23T08:31:47;6.72;;;1.73;;
71042;SDS011;58696;52.134;5.500;2024-03-23T08:34:12;9.68;;;2.00;;
71042;SDS011;58696;52.134;5.500;2024-03-23T08:36:40;10.77;;;2.00;;
71042;SDS011;58696;52.134;5.500;2024-03-23T08:39:09;9.00;;;1.77;;
71042;SDS011;58696;52.134;5.500;2024-03-23T08:41:37;8.82;;;2.13;;
71042;SDS011;58696;52.134;5.500;2024-03-23T08:44:03;7.13;;;1.67;;
71042;SDS011;58696;52.134;5.500;2024-03-23T08:46:29;7.13;;;1.75;;
71042;SDS011;58696;52.134;5.500;2024-03-23T08:48:55;5.25;;;1.40;;
71042;SDS011;58696;52.134;5.500;2024-03-23T08:51:23;8.88;;;1.92;;
71042;SDS011;58696;52.134;5.500;2024-03-23T08:53:51;8.40;;;1.40;;
71042;SDS011;58696;52.134;5.500;2024-03-23T08:56:19;6.70;;;1.85;;
71042;SDS011;58696;52.134;5.500;2024-03-23T08:58:45;7.80;;;1.90;;
71042;SDS011;58696;52.134;5.500;2024-03-23T09:01:12;8.18;;;1.58;;
71042;SDS011;58696;52.134;5.500;2024-03-23T09:03:43;9.32;;;1.70;;
71042;SDS011;58696;52.134;5.500;2024-03-23T09:06:12;10.05;;;1.70;;
71042;SDS011;58696;52.134;5.500;2024-03-23T09:08:39;3.92;;;1.58;;
71042;SDS011;58696;52.134;5.500;2024-03-23T09:11:07;3.80;;;1.55;;
71042;SDS011;58696;52.134;5.500;2024-03-23T09:13:36;8.27;;;1.50;;
71042;SDS011;58696;52.134;5.500;2024-03-23T09:16:03;5.28;;;1.45;;
71042;SDS011;58696;52.134;5.500;2024-03-23T09:18:33;6.07;;;1.40;;
71042;SDS011;58696;52.134;5.500;2024-03-23T09:21:10;6.82;;;1.52;;
71042;SDS011;58696;52.134;5.500;2024-03-23T09:23:38;5.15;;;1.20;;
71042;SDS011;58696;52.134;5.500;2024-03-23T09:28:37;5.00;;;1.25;;
71042;SDS011;58696;52.134;5.500;2024-03-23T09:31:06;4.40;;;1.40;;
71042;SDS011;58696;52.134;5.500;2024-03-23T09:33:37;5.55;;;1.30;;
71042;SDS011;58696;52.134;5.500;2024-03-23T09:36:06;5.47;;;1.05;;
71042;SDS011;58696;52.134;5.500;2024-03-23T09:38:33;5.93;;;1.10;;
71042;SDS011;58696;52.134;5.500;2024-03-23T09:41:06;4.65;;;1.10;;
71042;SDS011;58696;52.134;5.500;2024-03-23T09:43:33;7.20;;;0.93;;
71042;SDS011;58696;52.134;5.500;2024-03-23T09:46:02;3.40;;;1.13;;
71042;SDS011;58696;52.134;5.500;2024-03-23T09:48:28;5.97;;;1.35;;
71042;SDS011;58696;52.134;5.500;2024-03-23T09:50:56;8.65;;;1.50;;
71042;SDS011;58696;52.134;5.500;2024-03-23T09:53:22;3.63;;;1.25;;
71042;SDS011;58696;52.134;5.500;2024-03-23T09:58:17;2.80;;;0.65;;
71042;SDS011;58696;52.134;5.500;2024-03-23T10:00:44;1.48;;;0.65;;
71042;SDS011;58696;52.134;5.500;2024-03-23T10:05:38;4.50;;;0.90;;
71042;SDS011;58696;52.134;5.500;2024-03-23T10:10:39;8.05;;;1.88;;
71042;SDS011;58696;52.134;5.500;2024-03-23T10:13:08;8.90;;;1.95;;
71042;SDS011;58696;52.134;5.500;2024-03-23T10:15:38;4.75;;;1.50;;
71042;SDS011;58696;52.134;5.500;2024-03-23T10:18:25;5.20;;;1.67;;
71042;SDS011;58696;52.134;5.500;2024-03-23T10:26:19;5.55;;;1.50;;
71042;SDS011;58696;52.134;5.500;2024-03-23T10:31:32;9.05;;;1.60;;
71042;SDS011;58696;52.134;5.500;2024-03-23T10:33:57;4.63;;;1.67;;
71042;SDS011;58696;52.134;5.500;2024-03-23T10:36:24;5.45;;;1.17;;
71042;SDS011;58696;52.134;5.500;2024-03-23T10:38:54;6.47;;;1.17;;
71042;SDS011;58696;52.134;5.500;2024-03-23T10:41:20;8.25;;;1.77;;
71042;SDS011;58696;52.134;5.500;2024-03-23T10:43:46;4.18;;;1.45;;
71042;SDS011;58696;52.134;5.500;2024-03-23T10:46:13;4.55;;;1.60;;
71042;SDS011;58696;52.134;5.500;2024-03-23T10:48:38;7.40;;;1.35;;
71042;SDS011;58696;52.134;5.500;2024-03-23T10:51:09;6.90;;;1.48;;
71042;SDS011;58696;52.134;5.500;2024-03-23T10:53:39;4.20;;;1.15;;
71042;SDS011;58696;52.134;5.500;2024-03-23T10:56:08;5.78;;;1.40;;
71042;SDS011;58696;52.134;5.500;2024-03-23T10:58:40;8.38;;;1.60;;
71042;SDS011;58696;52.134;5.500;2024-03-23T11:01:14;3.63;;;1.38;;
71042;SDS011;58696;52.134;5.500;2024-03-23T11:03:47;7.20;;;1.45;;
71042;SDS011;58696;52.134;5.500;2024-03-23T11:06:35;3.13;;;1.08;;
71042;SDS011;58696;52.134;5.500;2024-03-23T11:09:02;7.75;;;1.40;;
71042;SDS011;58696;52.134;5.500;2024-03-23T11:11:28;5.05;;;1.05;;
71042;SDS011;58696;52.134;5.500;2024-03-23T11:13:56;2.55;;;1.00;;
71042;SDS011;58696;52.134;5.500;2024-03-23T11:16:23;4.53;;;1.25;;
71042;SDS011;58696;52.134;5.500;2024-03-23T11:18:53;6.55;;;1.10;;
71042;SDS011;58696;52.134;5.500;2024-03-23T11:24:20;7.57;;;1.60;;
71042;SDS011;58696;52.134;5.500;2024-03-23T11:26:48;5.63;;;1.60;;
71042;SDS011;58696;52.134;5.500;2024-03-23T11:29:18;5.53;;;1.33;;
71042;SDS011;58696;52.134;5.500;2024-03-23T11:34:15;10.93;;;1.58;;
71042;SDS011;58696;52.134;5.500;2024-03-23T11:36:44;4.38;;;1.27;;
71042;SDS011;58696;52.134;5.500;2024-03-23T11:41:49;6.07;;;1.42;;
71042;SDS011;58696;52.134;5.500;2024-03-23T11:44:20;9.88;;;1.75;;
71042;SDS011;58696;52.134;5.500;2024-03-23T11:46:49;6.80;;;2.13;;
71042;SDS011;58696;52.134;5.500;2024-03-23T11:49:28;8.75;;;1.13;;
71042;SDS011;58696;52.134;5.500;2024-03-23T11:51:55;5.60;;;1.45;;
71042;SDS011;58696;52.134;5.500;2024-03-23T11:54:22;5.70;;;1.23;;
71042;SDS011;58696;52.134;5.500;2024-03-23T11:59:38;8.25;;;1.35;;
71042;SDS011;58696;52.134;5.500;2024-03-23T12:02:06;4.93;;;1.23;;
71042;SDS011;58696;52.134;5.500;2024-03-23T12:04:33;6.95;;;1.55;;
71042;SDS011;58696;52.134;5.500;2024-03-23T12:07:20;5.45;;;1.27;;
71042;SDS011;58696;52.134;5.500;2024-03-23T12:12:31;6.05;;;1.70;;
71042;SDS011;58696;52.134;5.500;2024-03-23T12:15:04;3.40;;;1.35;;
71042;SDS011;58696;52.134;5.500;2024-03-23T12:17:31;5.30;;;1.33;;
71042;SDS011;58696;52.134;5.500;2024-03-23T12:19:57;5.47;;;1.30;;
71042;SDS011;58696;52.134;5.500;2024-03-23T12:22:24;4.75;;;1.17;;
71042;SDS011;58696;52.134;5.500;2024-03-23T12:24:52;6.05;;;1.67;;
71042;SDS011;58696;52.134;5.500;2024-03-23T12:29:47;5.50;;;1.25;;
71042;SDS011;58696;52.134;5.500;2024-03-23T12:32:15;3.95;;;1.50;;
71042;SDS011;58696;52.134;5.500;2024-03-23T12:34:41;7.10;;;2.28;;
71042;SDS011;58696;52.134;5.500;2024-03-23T12:37:07;5.68;;;1.60;;
71042;SDS011;58696;52.134;5.500;2024-03-23T12:39:34;3.40;;;0.88;;
71042;SDS011;58696;52.134;5.500;2024-03-23T12:42:01;7.43;;;1.60;;
71042;SDS011;58696;52.134;5.500;2024-03-23T12:44:30;9.43;;;1.65;;
71042;SDS011;58696;52.134;5.500;2024-03-23T12:46:56;5.03;;;1.38;;
71042;SDS011;58696;52.134;5.500;2024-03-23T12:49:22;7.75;;;1.63;;
71042;SDS011;58696;52.134;5.500;2024-03-23T12:51:53;9.38;;;1.60;;
71042;SDS011;58696;52.134;5.500;2024-03-23T12:54:21;7.07;;;1.42;;
71042;SDS011;58696;52.134;5.500;2024-03-23T12:56:47;8.40;;;1.40;;
71042;SDS011;58696;52.134;5.500;2024-03-23T12:59:15;4.03;;;1.33;;
71042;SDS011;58696;52.134;5.500;2024-03-23T13:01:46;7.32;;;1.55;;
71042;SDS011;58696;52.134;5.500;2024-03-23T13:06:37;3.95;;;1.25;;
71042;SDS011;58696;52.134;5.500;2024-03-23T13:09:03;5.10;;;1.52;;
71042;SDS011;58696;52.134;5.500;2024-03-23T13:11:30;4.45;;;1.38;;
71042;SDS011;58696;52.134;5.500;2024-03-23T13:13:59;4.85;;;1.30;;
71042;SDS011;58696;52.134;5.500;2024-03-23T13:16:31;5.07;;;1.23;;
71042;SDS011;58696;52.134;5.500;2024-03-23T13:21:26;7.88;;;1.90;;
71042;SDS011;58696;52.134;5.500;2024-03-23T13:23:54;7.50;;;1.98;;
71042;SDS011;58696;52.134;5.500;2024-03-23T13:26:20;6.50;;;1.85;;
71042;SDS011;58696;52.134;5.500;2024-03-23T13:28:46;5.88;;;1.70;;
71042;SDS011;58696;52.134;5.500;2024-03-23T13:31:14;3.42;;;1.25;;
71042;SDS011;58696;52.134;5.500;2024-03-23T13:33:40;2.13;;;0.77;;
71042;SDS011;58696;52.134;5.500;2024-03-23T13:36:07;1.05;;;0.57;;
71042;SDS011;58696;52.134;5.500;2024-03-23T13:38:33;1.20;;;0.65;;
71042;SDS011;58696;52.134;5.500;2024-03-23T13:40:59;0.80;;;0.35;;
71042;SDS011;58696;52.134;5.500;2024-03-23T13:43:26;0.73;;;0.35;;
71042;SDS011;58696;52.134;5.500;2024-03-23T13:45:58;1.80;;;0.50;;
71042;SDS011;58696;52.134;5.500;2024-03-23T13:48:26;1.65;;;0.40;;
71042;SDS011;58696;52.134;5.500;2024-03-23T13:50:59;3.40;;;1.13;;
71042;SDS011;58696;52.134;5.500;2024-03-23T13:53:26;1.90;;;0.98;;
71042;SDS011;58696;52.134;5.500;2024-03-23T13:55:52;3.17;;;0.80;;
71042;SDS011;58696;52.134;5.500;2024-03-23T13:58:21;2.40;;;0.77;;
71042;SDS011;58696;52.134;5.500;2024-03-23T14:00:49;4.18;;;1.23;;
71042;SDS011;58696;52.134;5.500;2024-03-23T14:03:15;4.57;;;1.25;;
71042;SDS011;58696;52.134;5.500;2024-03-23T14:05:43;5.55;;;1.30;;
71042;SDS011;58696;52.134;5.500;2024-03-23T14:08:10;5.85;;;1.23;;
71042;SDS011;58696;52.134;5.500;2024-03-23T14:10:36;9.38;;;1.20;;
71042;SDS011;58696;52.134;5.500;2024-03-23T14:13:08;5.43;;;1.35;;
71042;SDS011;58696;52.134;5.500;2024-03-23T14:15:36;5.43;;;1.67;;
71042;SDS011;58696;52.134;5.500;2024-03-23T14:18:04;3.30;;;1.40;;
71042;SDS011;58696;52.134;5.500;2024-03-23T14:20:33;7.28;;;1.55;;
71042;SDS011;58696;52.134;5.500;2024-03-23T14:23:01;5.85;;;1.20;;
71042;SDS011;58696;52.134;5.500;2024-03-23T14:25:28;7.57;;;1.35;;
71042;SDS011;58696;52.134;5.500;2024-03-23T14:27:54;9.40;;;1.58;;
71042;SDS011;58696;52.134;5.500;2024-03-23T14:30:20;6.35;;;1.30;;
71042;SDS011;58696;52.134;5.500;2024-03-23T14:32:45;9.57;;;1.75;;
71042;SDS011;58696;52.134;5.500;2024-03-23T14:35:11;7.25;;;1.20;;
71042;SDS011;58696;52.134;5.500;2024-03-23T14:37:37;4.53;;;1.48;;
71042;SDS011;58696;52.134;5.500;2024-03-23T14:40:07;3.17;;;1.15;;
71042;SDS011;58696;52.134;5.500;2024-03-23T14:42:36;4.93;;;1.17;;
71042;SDS011;58696;52.134;5.500;2024-03-23T14:45:02;3.47;;;0.90;;
71042;SDS011;58696;52.134;5.500;2024-03-23T14:49:56;8.02;;;1.42;;
71042;SDS011;58696;52.134;5.500;2024-03-23T14:52:23;6.43;;;1.10;;
71042;SDS011;58696;52.134;5.500;2024-03-23T14:54:51;6.60;;;1.35;;
71042;SDS011;58696;52.134;5.500;2024-03-23T14:57:17;4.97;;;1.38;;
71042;SDS011;58696;52.134;5.500;2024-03-23T14:59:46;15.07;;;2.05;;
71042;SDS011;58696;52.134;5.500;2024-03-23T15:02:14;6.60;;;1.42;;
71042;SDS011;58696;52.134;5.500;2024-03-23T15:04:43;7.90;;;1.67;;
71042;SDS011;58696;52.134;5.500;2024-03-23T15:07:08;4.38;;;1.10;;
71042;SDS011;58696;52.134;5.500;2024-03-23T15:09:36;3.90;;;0.90;;
71042;SDS011;58696;52.134;5.500;2024-03-23T15:12:02;2.05;;;0.95;;
71042;SDS011;58696;52.134;5.500;2024-03-23T15:14:28;4.10;;;1.05;;
71042;SDS011;58696;52.134;5.500;2024-03-23T15:16:56;3.90;;;1.15;;
71042;SDS011;58696;52.134;5.500;2024-03-23T15:19:22;4.05;;;1.65;;
71042;SDS011;58696;52.134;5.500;2024-03-23T15:21:47;5.28;;;1.33;;
71042;SDS011;58696;52.134;5.500;2024-03-23T15:24:16;4.30;;;1.10;;
71042;SDS011;58696;52.134;5.500;2024-03-23T15:26:41;6.65;;;1.30;;
71042;SDS011;58696;52.134;5.500;2024-03-23T15:29:10;7.47;;;1.30;;
71042;SDS011;58696;52.134;5.500;2024-03-23T15:31:42;7.22;;;1.20;;
71042;SDS011;58696;52.134;5.500;2024-03-23T15:34:08;5.10;;;1.50;;
71042;SDS011;58696;52.134;5.500;2024-03-23T15:36:37;2.80;;;1.20;;
71042;SDS011;58696;52.134;5.500;2024-03-23T15:39:06;5.72;;;1.05;;
71042;SDS011;58696;52.134;5.500;2024-03-23T15:41:38;4.05;;;0.88;;
71042;SDS011;58696;52.134;5.500;2024-03-23T15:44:07;2.35;;;1.10;;
71042;SDS011;58696;52.134;5.500;2024-03-23T15:46:37;4.47;;;1.20;;
71042;SDS011;58696;52.134;5.500;2024-03-23T15:49:03;2.95;;;1.02;;
71042;SDS011;58696;52.134;5.500;2024-03-23T15:51:30;4.50;;;1.20;;
71042;SDS011;58696;52.134;5.500;2024-03-23T15:54:00;5.63;;;1.38;;
71042;SDS011;58696;52.134;5.500;2024-03-23T15:56:31;3.58;;;0.68;;
71042;SDS011;58696;52.134;5.500;2024-03-23T15:58:59;8.88;;;1.77;;
71042;SDS011;58696;52.134;5.500;2024-03-23T16:01:31;5.47;;;1.42;;
71042;SDS011;58696;52.134;5.500;2024-03-23T16:04:01;3.85;;;1.08;;
71042;SDS011;58696;52.134;5.500;2024-03-23T16:06:27;5.35;;;1.27;;
71042;SDS011;58696;52.134;5.500;2024-03-23T16:08:53;4.28;;;1.00;;
71042;SDS011;58696;52.134;5.500;2024-03-23T16:11:19;6.95;;;1.45;;
71042;SDS011;58696;52.134;5.500;2024-03-23T16:13:47;6.10;;;1.50;;
71042;SDS011;58696;52.134;5.500;2024-03-23T16:16:15;2.05;;;0.90;;
71042;SDS011;58696;52.134;5.500;2024-03-23T16:18:41;2.70;;;0.98;;
71042;SDS011;58696;52.134;5.500;2024-03-23T16:23:35;15.23;;;1.58;;
71042;SDS011;58696;52.134;5.500;2024-03-23T16:26:09;4.60;;;1.20;;
71042;SDS011;58696;52.134;5.500;2024-03-23T16:28:38;5.95;;;1.00;;
71042;SDS011;58696;52.134;5.500;2024-03-23T16:31:09;3.00;;;1.02;;
71042;SDS011;58696;52.134;5.500;2024-03-23T16:33:38;5.50;;;1.33;;
71042;SDS011;58696;52.134;5.500;2024-03-23T16:36:04;10.70;;;1.75;;
71042;SDS011;58696;52.134;5.500;2024-03-23T16:38:35;3.85;;;1.40;;
71042;SDS011;58696;52.134;5.500;2024-03-23T16:41:06;6.33;;;1.47;;
71042;SDS011;58696;52.134;5.500;2024-03-23T16:43:38;1.42;;;0.70;;
71042;SDS011;58696;52.134;5.500;2024-03-23T16:46:06;2.00;;;0.80;;
71042;SDS011;58696;52.134;5.500;2024-03-23T16:48:39;3.33;;;0.95;;
71042;SDS011;58696;52.134;5.500;2024-03-23T16:51:10;4.25;;;0.80;;
71042;SDS011;58696;52.134;5.500;2024-03-23T16:53:36;0.85;;;0.52;;
71042;SDS011;58696;52.134;5.500;2024-03-23T16:56:07;1.95;;;0.65;;
71042;SDS011;58696;52.134;5.500;2024-03-23T16:58:39;1.55;;;0.65;;